Time;durP1;ratioP1;P1;durP2;ratioP2;P2;SDS_P1;SDS_P2;PMS_P1;PMS_P2;Temp;Humidity;BMP_temperature;BMP_pressure;BME280_temperature;BME280_humidity;BME280_pressure;Samples;Min_cycle;Max_cycle;Signal;HPM_P1;HPM_P2
2021/08/17 00:00:58;;;;;;;9.05;3.28;;;12.20;99.90;;;10.77;89.98;101400.91;2567756;30;137661;-40
2021/08/17 00:03:27;;;;;;;9.30;3.20;;;12.20;99.90;;;10.80;89.90;101402.41;2567367;30;138455;-40
2021/08/17 00:06:00;;;;;;;10.98;3.05;;;12.20;99.90;;;10.75;90.32;101399.44;2567629;30;137616;-40
2021/08/17 00:08:28;;;;;;;9.80;3.03;;;12.20;99.90;;;10.67;90.44;101399.59;2567341;30;140540;-40
2021/08/17 00:10:56;;;;;;;8.57;3.35;;;12.10;99.90;;;10.57;90.53;101395.34;2565531;30;137744;-40
2021/08/17 00:13:24;;;;;;;8.20;3.10;;;12.10;99.90;;;10.61;91.14;101391.16;2567737;30;139260;-40
2021/08/17 00:15:52;;;;;;;9.93;3.95;;;12.10;99.90;;;10.59;91.68;101403.28;2569008;30;137529;-43
2021/08/17 00:18:20;;;;;;;9.82;3.38;;;12.00;99.90;;;10.53;91.88;101402.22;2568436;30;138174;-40
2021/08/17 00:20:48;;;;;;;9.98;3.40;;;12.00;99.90;;;10.55;92.42;101404.75;2565343;30;137217;-40
2021/08/17 00:23:15;;;;;;;11.18;3.72;;;12.00;99.90;;;10.48;92.99;101408.28;2569001;30;138308;-40
2021/08/17 00:25:44;;;;;;;9.77;3.80;;;12.00;99.90;;;10.48;92.96;101405.53;2568189;30;137646;-40
2021/08/17 00:28:12;;;;;;;7.63;3.38;;;11.90;99.90;;;10.42;93.33;101403.63;2569278;30;137423;-40
2021/08/17 00:30:39;;;;;;;10.05;3.88;;;11.90;99.90;;;10.43;93.56;101405.28;2566677;30;137651;-40
2021/08/17 00:33:07;;;;;;;10.43;4.13;;;11.90;99.90;;;10.39;94.17;101403.97;2567228;30;137436;-41
2021/08/17 00:35:37;;;;;;;9.95;3.53;;;11.90;99.90;;;10.36;94.15;101401.66;2568258;30;137630;-40
2021/08/17 00:38:06;;;;;;;13.68;4.47;;;11.90;99.90;;;10.41;94.37;101399.19;2569149;30;137637;-40
2021/08/17 00:40:34;;;;;;;10.13;4.03;;;11.80;99.90;;;10.28;94.50;101402.63;2568396;30;137476;-40
2021/08/17 00:43:02;;;;;;;10.90;4.47;;;11.80;99.90;;;10.30;95.08;101410.59;2568997;30;139151;-40
2021/08/17 00:45:30;;;;;;;12.98;4.95;;;11.80;99.90;;;10.25;95.31;101407.63;2568386;30;137348;-40
2021/08/17 00:47:58;;;;;;;11.85;5.00;;;11.80;99.90;;;10.33;95.69;101404.75;2568109;30;139215;-39
2021/08/17 00:50:29;;;;;;;9.40;4.75;;;11.80;99.90;;;10.30;95.82;101402.41;2567410;30;137396;-37
2021/08/17 00:52:58;;;;;;;16.70;5.38;;;11.80;99.90;;;10.30;96.11;101391.50;2568566;30;138417;-40
2021/08/17 00:55:31;;;;;;;12.70;5.75;;;11.80;99.90;;;10.40;96.41;101399.34;2567308;30;136819;-40
2021/08/17 00:58:00;;;;;;;15.52;5.68;;;11.80;99.90;;;10.33;96.51;101400.16;2566288;30;138793;-40
2021/08/17 01:00:28;;;;;;;17.85;6.45;;;11.80;99.90;;;10.32;96.63;101392.16;2568143;30;138364;-39
2021/08/17 01:02:56;;;;;;;19.85;6.00;;;11.80;99.90;;;10.33;96.64;101399.28;2566133;30;138269;-40
2021/08/17 01:05:29;;;;;;;15.75;6.30;;;11.80;99.90;;;10.39;96.87;101392.22;2568532;30;137055;-40
2021/08/17 01:07:59;;;;;;;18.23;6.35;;;11.80;99.90;;;10.47;96.82;101403.00;2567269;30;138232;-40
2021/08/17 01:10:27;;;;;;;16.88;6.80;;;11.90;99.90;;;10.45;96.67;101391.44;2568532;30;136626;-40
2021/08/17 01:12:55;;;;;;;19.95;6.55;;;11.90;99.90;;;10.41;96.77;101391.00;2568821;30;138254;-43
2021/08/17 01:15:25;;;;;;;21.98;7.05;;;11.90;99.90;;;10.45;96.85;101392.31;2565390;30;138460;-40
2021/08/17 01:17:52;;;;;;;20.13;7.35;;;11.90;99.90;;;10.42;96.87;101397.28;2567891;30;138235;-39
2021/08/17 01:20:21;;;;;;;17.90;7.57;;;11.90;99.90;;;10.43;96.98;101394.38;2568153;30;137712;-40
2021/08/17 01:22:49;;;;;;;18.67;7.53;;;11.90;99.90;;;10.42;97.02;101395.44;2568432;30;138437;-40
2021/08/17 01:25:17;;;;;;;20.45;8.10;;;11.90;99.90;;;10.41;97.59;101391.00;2565718;30;137666;-40
2021/08/17 01:27:46;;;;;;;22.08;8.43;;;11.90;99.90;;;10.48;97.81;101391.91;2568350;30;139202;-39
2021/08/17 01:30:16;;;;;;;20.38;7.90;;;11.90;99.90;;;10.43;98.08;101398.97;2567877;30;136705;-40
2021/08/17 01:32:47;;;;;;;24.08;8.52;;;11.90;99.90;;;10.41;98.14;101393.75;2567166;30;138101;-40
2021/08/17 01:35:15;;;;;;;23.55;9.52;;;11.90;99.90;;;10.55;98.29;101382.91;2568056;30;137495;-39
2021/08/17 01:37:43;;;;;;;30.90;10.60;;;12.00;99.90;;;10.58;98.19;101402.47;2566769;30;138542;-41
2021/08/17 01:40:12;;;;;;;23.08;8.95;;;12.00;99.90;;;10.59;98.68;101393.25;2567307;30;137832;-40
2021/08/17 01:42:51;;;;;;;27.58;10.20;;;12.00;99.90;;;10.54;98.32;101403.06;2566793;30;138971;-39
2021/08/17 01:45:21;;;;;;;28.17;10.18;;;12.00;99.90;;;10.49;98.95;101409.97;2565116;38;137421;-39
2021/08/17 01:47:51;;;;;;;31.33;10.13;;;12.00;99.90;;;10.59;98.96;101403.28;2568339;30;138204;-40
2021/08/17 01:50:20;;;;;;;31.27;10.82;;;12.00;99.90;;;10.56;99.02;101410.00;2568120;30;137745;-39
2021/08/17 01:52:48;;;;;;;29.50;10.43;;;12.00;99.90;;;10.48;98.89;101402.00;2565441;30;138226;-40
2021/08/17 01:55:16;;;;;;;34.90;12.68;;;12.00;99.90;;;10.46;99.29;101393.97;2568129;30;137686;-40
2021/08/17 01:57:44;;;;;;;30.02;11.35;;;12.00;99.90;;;10.53;99.63;101398.66;2568713;30;139099;-40
2021/08/17 02:00:12;;;;;;;29.73;11.10;;;12.00;99.90;;;10.55;99.67;101396.56;2567305;30;136772;-40
2021/08/17 02:02:41;;;;;;;32.60;12.13;;;12.00;99.90;;;10.53;99.51;101399.50;2566625;30;137692;-40
2021/08/17 02:05:10;;;;;;;31.95;11.75;;;12.00;99.90;;;10.46;99.45;101398.59;2567457;30;137062;-39
2021/08/17 02:07:38;;;;;;;30.63;11.52;;;12.00;99.90;;;10.53;99.85;101401.38;2567117;30;138621;-40
2021/08/17 02:10:06;;;;;;;29.70;11.93;;;12.00;99.90;;;10.55;100.00;101404.75;2568677;30;137607;-40
2021/08/17 02:12:34;;;;;;;31.98;12.45;;;12.00;99.90;;;10.58;100.00;101397.03;2567980;30;138638;-39
2021/08/17 02:15:01;;;;;;;36.63;13.38;;;12.00;99.90;;;10.58;100.00;101404.34;2566636;30;137307;-40
2021/08/17 02:17:29;;;;;;;35.80;13.57;;;12.00;99.90;;;10.56;100.00;101406.44;2568144;30;137070;-39
2021/08/17 02:19:56;;;;;;;35.40;12.43;;;12.00;99.90;;;10.59;100.00;101397.84;2567881;30;136904;-40
2021/08/17 02:22:24;;;;;;;38.72;14.40;;;12.00;99.90;;;10.63;100.00;101402.72;2568437;30;139462;-39
2021/08/17 02:24:52;;;;;;;35.60;13.82;;;12.10;99.90;;;10.58;100.00;101401.63;2567947;30;137206;-40
2021/08/17 02:27:19;;;;;;;42.00;13.93;;;12.10;99.90;;;10.58;100.00;101405.19;2567766;30;138259;-40
2021/08/17 02:29:46;;;;;;;40.28;14.63;;;12.00;99.90;;;10.60;100.00;101404.97;2567311;30;138688;-40
2021/08/17 02:32:14;;;;;;;44.72;15.55;;;12.10;99.90;;;10.62;100.00;101406.50;2565567;30;138262;-39
2021/08/17 02:34:41;;;;;;;36.13;13.43;;;12.10;99.90;;;10.56;100.00;101399.09;2568016;30;136956;-40
2021/08/17 02:37:09;;;;;;;41.28;14.48;;;12.00;99.90;;;10.58;100.00;101412.53;2567817;30;139348;-40
2021/08/17 02:39:42;;;;;;;38.70;14.95;;;12.00;99.90;;;10.50;100.00;101399.91;2568957;30;137636;31
2021/08/17 02:42:12;;;;;;;39.60;15.05;;;12.00;99.90;;;10.61;100.00;101412.16;2569943;30;137876;-38
2021/08/17 02:44:40;;;;;;;41.65;14.65;;;12.00;99.90;;;10.58;100.00;101417.97;2569460;30;138146;-38
2021/08/17 02:47:08;;;;;;;38.97;13.68;;;12.00;99.90;;;10.61;100.00;101414.88;2568020;30;138343;-39
2021/08/17 02:49:36;;;;;;;38.58;13.57;;;12.10;99.90;;;10.60;100.00;101414.03;2567719;30;136858;-38
2021/08/17 02:52:05;;;;;;;44.35;14.32;;;12.10;99.90;;;10.58;100.00;101412.53;2570947;30;137562;-39
2021/08/17 02:54:35;;;;;;;36.53;13.80;;;12.10;99.90;;;10.60;100.00;101418.63;2566376;30;138359;-38
2021/08/17 02:57:04;;;;;;;36.53;14.05;;;12.00;99.90;;;10.64;100.00;101417.22;2569260;30;138337;-39
2021/08/17 02:59:31;;;;;;;35.22;13.38;;;12.00;99.90;;;10.62;100.00;101414.66;2570005;30;137579;-38
2021/08/17 03:01:59;;;;;;;42.97;14.18;;;12.10;99.90;;;10.62;100.00;101416.56;2568619;30;138353;-39
2021/08/17 03:04:27;;;;;;;;;;;12.10;99.90;;;10.59;100.00;101412.34;2569343;30;137594;-38
2021/08/17 03:06:56;;;;;;;42.60;14.60;;;12.00;99.90;;;10.62;100.00;101413.84;2566769;30;138488;-39
2021/08/17 03:09:24;;;;;;;41.05;14.60;;;12.10;99.90;;;10.64;100.00;101417.22;2569418;30;137523;-38
2021/08/17 03:11:51;;;;;;;;;;;12.10;99.90;;;10.60;100.00;101413.16;2569715;30;137283;-39
2021/08/17 03:14:18;;;;;;;41.15;14.40;;;12.10;99.90;;;10.59;100.00;101408.75;2567789;30;137266;-38
2021/08/17 03:16:46;;;;;;;37.38;14.15;;;12.00;99.90;;;10.54;100.00;101409.38;2569837;30;137839;-39
2021/08/17 03:19:14;;;;;;;39.67;14.95;;;12.00;99.90;;;10.56;100.00;101409.16;2569948;30;137688;-39
2021/08/17 03:21:41;;;;;;;42.40;14.25;;;12.00;99.90;;;10.57;100.00;101421.75;2568469;30;138536;-38
2021/08/17 03:24:09;;;;;;;40.38;15.27;;;12.00;99.90;;;10.57;100.00;101416.31;2568959;30;137657;-39
2021/08/17 03:26:37;;;;;;;37.03;13.30;;;12.00;99.90;;;10.55;100.00;101413.78;2570000;30;138448;-39
2021/08/17 03:29:04;;;;;;;37.03;13.80;;;12.00;99.90;;;10.52;100.00;101407.88;2572462;30;137586;-39
2021/08/17 03:31:31;;;;;;;38.08;13.10;;;12.00;99.90;;;10.55;100.00;101407.47;2568447;30;139558;-38
2021/08/17 03:33:59;;;;;;;37.55;13.95;;;12.00;99.90;;;10.55;100.00;101408.31;2568971;30;136852;-37
2021/08/17 03:36:26;;;;;;;36.90;14.40;;;12.00;99.90;;;10.54;100.00;101411.25;2569410;30;137582;-38
2021/08/17 03:38:54;;;;;;;32.22;12.75;;;12.00;99.90;;;10.47;100.00;101412.03;2568330;30;136986;-39
2021/08/17 03:41:21;;;;;;;36.70;13.70;;;12.00;99.90;;;10.49;100.00;101407.22;2569991;30;139428;-39
2021/08/17 03:43:49;;;;;;;34.25;12.85;;;12.00;99.90;;;10.47;100.00;101405.72;2569946;30;138586;-39
2021/08/17 03:46:17;;;;;;;32.35;12.82;;;12.00;99.90;;;10.42;100.00;101409.06;2567475;30;139277;-38
2021/08/17 03:48:44;;;;;;;33.90;13.68;;;11.90;99.90;;;10.43;100.00;101409.91;2569578;30;136888;-40
2021/08/17 03:51:12;;;;;;;35.25;14.27;;;11.90;99.90;;;10.38;100.00;101407.75;2569633;30;137421;-39
2021/08/17 03:53:39;;;;;;;39.33;14.07;;;11.90;99.90;;;10.40;100.00;101411.16;2570237;30;137776;-38
2021/08/17 03:56:07;;;;;;;31.70;12.75;;;11.90;99.90;;;10.33;100.00;101410.19;2567551;30;139470;-38
2021/08/17 03:58:34;;;;;;;33.92;13.10;;;11.80;99.90;;;10.29;100.00;101414.34;2569169;30;138967;-38
2021/08/17 04:01:02;;;;;;;37.63;13.45;;;11.80;99.90;;;10.30;100.00;101410.59;2569260;30;138410;-38
2021/08/17 04:03:29;;;;;;;;;;;11.80;99.90;;;10.33;100.00;101402.88;2570814;30;137658;-38
2021/08/17 04:05:57;;;;;;;33.58;12.55;;;11.80;99.90;;;10.31;100.00;101401.38;2569514;30;138173;-39
2021/08/17 04:08:24;;;;;;;34.88;13.55;;;11.80;99.90;;;10.33;100.00;101396.56;2567506;30;136796;-38
2021/08/17 04:10:52;;;;;;;41.28;14.20;;;11.80;99.90;;;10.33;100.00;101407.47;2570110;30;138476;-39
2021/08/17 04:13:19;;;;;;;39.78;15.20;;;11.80;99.90;;;10.43;100.00;101405.28;2570820;30;138759;-38
2021/08/17 04:15:47;;;;;;;37.92;13.38;;;11.90;99.90;;;10.49;100.00;101406.41;2566206;30;138291;-39
2021/08/17 04:18:14;;;;;;;44.47;14.57;;;11.90;99.90;;;10.55;100.00;101397.41;2571081;30;137048;-39
2021/08/17 04:20:42;;;;;;;38.15;14.70;;;11.90;99.90;;;10.56;100.00;101403.69;2568191;30;138447;-39
2021/08/17 04:23:09;;;;;;;40.00;14.73;;;12.00;99.90;;;10.60;100.00;101400.38;2571854;30;137041;-38
2021/08/17 04:25:39;;;;;;;38.35;13.95;;;12.00;99.90;;;10.63;100.00;101405.44;2568844;30;137726;-39
2021/08/17 04:28:07;;;;;;;38.47;14.55;;;12.00;99.90;;;10.60;100.00;101399.53;2568959;30;137728;-38
2021/08/17 04:30:34;;;;;;;38.20;14.57;;;12.00;99.90;;;10.65;100.00;101411.53;2569146;30;138123;-38
2021/08/17 04:33:02;;;;;;;36.67;13.55;;;12.10;99.90;;;10.69;100.00;101403.81;2569438;30;137881;-39
2021/08/17 04:35:29;;;;;;;37.92;14.05;;;12.10;99.90;;;10.73;100.00;101418.75;2571162;30;138450;-39
2021/08/17 04:37:57;;;;;;;37.63;14.07;;;12.10;99.90;;;10.77;100.00;101420.03;2572294;30;136951;-38
2021/08/17 04:40:25;;;;;;;;;;;12.20;99.90;;;10.79;100.00;101422.56;2567910;30;138057;-38
2021/08/17 04:42:53;;;;;;;38.53;13.43;;;12.20;99.90;;;10.82;100.00;101435.81;2570235;30;136757;-39
2021/08/17 04:45:20;;;;;;;39.20;14.65;;;12.20;99.90;;;10.83;100.00;101423.84;2569240;30;137681;-38
2021/08/17 04:47:51;;;;;;;35.05;12.40;;;12.20;99.90;;;10.85;100.00;101423.63;2569734;30;137827;-38
2021/08/17 04:50:21;;;;;;;38.17;13.50;;;12.20;99.90;;;10.88;100.00;101426.00;2568431;30;138327;-38
2021/08/17 04:52:49;;;;;;;39.72;13.80;;;12.30;99.90;;;10.89;100.00;101425.78;2569893;30;137064;-38
2021/08/17 04:55:17;;;;;;;41.55;13.55;;;12.30;99.90;;;11.00;100.00;101423.53;2567733;30;138200;-39
2021/08/17 04:57:59;;;;;;;34.97;13.02;;;12.30;99.90;;;11.03;100.00;101439.53;2569207;30;137140;-39
2021/08/17 05:00:29;;;;;;;36.60;13.93;;;12.40;99.90;;;11.14;100.00;101440.81;2569773;30;138888;-39
2021/08/17 05:02:56;;;;;;;34.83;13.65;;;12.50;99.90;;;11.17;100.00;101444.00;2569899;30;137969;-38
2021/08/17 05:05:25;;;;;;;42.03;14.02;;;12.50;99.90;;;11.26;100.00;101452.03;2569513;30;137303;-38
2021/08/17 05:07:53;;;;;;;39.22;14.00;;;12.60;99.90;;;11.36;100.00;101436.94;2570111;30;136889;-39
2021/08/17 05:10:22;;;;;;;38.55;13.93;;;12.70;99.90;;;11.42;100.00;101440.78;2566759;30;138125;-39
2021/08/17 05:12:50;;;;;;;44.92;14.27;;;12.70;99.90;;;11.49;100.00;101443.53;2568788;30;138432;-38
2021/08/17 05:15:17;;;;;;;45.65;15.15;;;12.80;99.90;;;11.56;100.00;101447.13;2568141;30;139758;-39
2021/08/17 05:17:45;;;;;;;38.50;15.48;;;12.90;99.90;;;11.63;99.94;101441.72;2570949;30;137070;-39
2021/08/17 05:20:13;;;;;;;37.22;13.15;;;12.90;99.90;;;11.66;99.48;101435.81;2568626;30;138306;-39
2021/08/17 05:22:45;;;;;;;35.42;13.15;;;13.00;99.90;;;11.68;99.16;101433.72;2570985;30;137288;-39
2021/08/17 05:25:13;;;;;;;35.28;13.95;;;13.00;99.90;;;11.63;99.61;101441.72;2569529;30;138549;-38
2021/08/17 05:27:41;;;;;;;36.15;13.38;;;13.00;99.90;;;11.68;99.33;101432.91;2569489;30;137241;-39
2021/08/17 05:30:09;;;;;;;34.58;12.70;;;13.00;99.90;;;11.70;99.46;101437.09;2571302;30;138342;-39
2021/08/17 05:32:37;;;;;;;33.00;13.60;;;13.00;99.90;;;11.72;99.32;101445.09;2568601;30;138805;-39
2021/08/17 05:35:06;;;;;;;39.15;14.48;;;13.10;99.90;;;11.74;99.24;101452.03;2568218;30;138565;-39
2021/08/17 05:37:34;;;;;;;37.30;13.68;;;13.10;99.90;;;11.72;98.87;101453.31;2566279;30;136948;-39
2021/08/17 05:40:02;;;;;;;;;;;13.10;99.90;;;11.68;99.03;101463.78;2567443;30;138053;-38
2021/08/17 05:42:30;;;;;;;35.85;13.60;;;13.10;99.90;;;11.74;99.16;101453.94;2568545;30;136715;-38
2021/08/17 05:44:57;;;;;;;35.60;13.07;;;13.10;99.90;;;11.74;99.28;101457.50;2568544;30;138038;-39
2021/08/17 05:47:25;;;;;;;35.40;12.77;;;13.10;99.90;;;11.80;99.41;101459.44;2566282;30;137083;-39
2021/08/17 05:49:53;;;;;;;41.20;14.55;;;13.10;99.90;;;11.86;98.93;101455.03;2567012;30;138320;-39
2021/08/17 05:52:21;;;;;;;;;;;13.20;99.90;;;11.87;98.66;101459.44;2567737;30;136752;-38
2021/08/17 05:54:48;;;;;;;31.20;13.68;;;13.20;99.90;;;11.90;98.45;101442.63;2569387;30;138374;-39
2021/08/17 05:57:17;;;;;;;38.08;14.35;;;13.20;99.90;;;11.96;98.06;101451.91;2570493;30;139252;-38
2021/08/17 05:59:45;;;;;;;35.42;13.90;;;13.30;99.90;;;12.02;97.98;101456.56;2569633;30;136953;-39
2021/08/17 06:02:12;;;;;;;42.20;13.98;;;13.30;99.90;;;12.12;98.31;101458.91;2569051;30;137681;-38
2021/08/17 06:04:40;;;;;;;34.70;13.15;;;13.40;99.90;;;12.19;98.17;101459.75;2569133;30;138167;-39
2021/08/17 06:07:07;;;;;;;39.40;14.07;;;13.40;99.90;;;12.34;97.80;101454.13;2569258;30;137266;-39
2021/08/17 06:09:35;;;;;;;40.83;15.45;;;13.60;99.90;;;12.45;96.33;101458.09;2569971;30;137907;-38
2021/08/17 06:12:03;;;;;;;34.97;13.70;;;13.70;99.90;;;12.48;95.82;101460.44;2568939;30;137272;-39
2021/08/17 06:14:31;;;;;;;39.03;15.05;;;13.70;99.90;;;12.51;95.93;101465.50;2567975;30;137402;-39
2021/08/17 06:16:58;;;;;;;36.35;14.43;;;13.80;99.90;;;12.55;96.06;101465.06;2568763;30;136783;-39
2021/08/17 06:19:25;;;;;;;35.10;14.38;;;13.80;99.90;;;12.62;96.16;101463.16;2568419;30;138392;-39
2021/08/17 06:21:53;;;;;;;39.60;13.65;;;13.90;99.90;;;12.73;96.68;101470.75;2569774;30;137037;-39
2021/08/17 06:24:21;;;;;;;33.00;13.15;;;13.90;99.90;;;12.84;96.39;101462.94;2567655;30;138478;-38
2021/08/17 06:26:48;;;;;;;39.17;14.48;;;14.00;99.90;;;12.95;96.66;101459.56;2569695;30;136741;-39
2021/08/17 06:29:16;;;;;;;;;;;14.10;99.90;;;13.11;95.07;101466.47;2569372;30;137376;-39
2021/08/17 06:31:44;;;;;;;38.85;14.85;;;14.30;99.90;;;13.22;94.28;101462.25;2569610;30;136680;-38
2021/08/17 06:34:11;;;;;;;34.95;13.80;;;14.40;99.90;;;13.25;93.36;101464.53;2570456;30;137333;-38
2021/08/17 06:36:40;;;;;;;29.02;13.10;;;14.50;99.90;;;13.26;92.81;101454.44;2569380;30;137059;-39
2021/08/17 06:39:08;;;;;;;34.42;13.48;;;14.50;99.90;;;13.28;92.42;101455.06;2567602;30;139082;-40
2021/08/17 06:41:36;;;;;;;37.08;13.90;;;14.50;99.90;;;13.34;92.71;101457.78;2570048;30;138199;-39
2021/08/17 06:44:04;;;;;;;;;;;14.60;99.90;;;13.42;93.09;101448.50;2569756;30;139305;-38
2021/08/17 06:46:31;;;;;;;38.75;14.00;;;14.60;99.90;;;13.50;92.11;101451.03;2570123;30;137129;-38
2021/08/17 06:48:59;;;;;;;35.85;14.48;;;14.70;99.90;;;13.57;92.13;101450.16;2568866;30;138993;-39
2021/08/17 06:51:26;;;;;;;34.75;13.85;;;14.70;99.90;;;13.58;92.35;101458.16;2568411;30;138755;-39
2021/08/17 06:53:54;;;;;;;32.67;13.38;;;14.80;99.90;;;13.65;92.75;101453.50;2567661;30;138077;-37
2021/08/17 06:56:21;;;;;;;32.72;13.52;;;14.80;99.90;;;13.68;91.65;101448.63;2568264;30;137350;-38
2021/08/17 06:58:49;;;;;;;34.22;13.90;;;14.90;99.90;;;13.69;91.04;101462.13;2569030;30;137242;-39
2021/08/17 07:01:16;;;;;;;32.35;13.20;;;14.90;99.90;;;13.75;90.88;101463.13;2567576;30;137257;-39
2021/08/17 07:03:44;;;;;;;;;;;14.90;99.90;;;13.88;91.69;101467.72;2566324;30;138384;-39
2021/08/17 07:06:12;;;;;;;36.47;13.63;;;15.00;99.90;;;14.03;91.67;101461.94;2568379;30;137797;-39
2021/08/17 07:08:40;;;;;;;34.38;12.65;;;15.10;99.90;;;14.18;91.38;101462.47;2568682;30;137651;-39
2021/08/17 07:11:08;;;;;;;35.10;13.27;;;15.20;99.90;;;14.39;90.89;101453.03;2568743;30;138410;-39
2021/08/17 07:13:36;;;;;;;29.80;12.48;;;15.40;99.90;;;14.58;88.54;101455.00;2567340;30;138198;-39
2021/08/17 07:16:04;;;;;;;;;;;15.60;99.90;;;14.69;88.11;101451.53;2568620;30;137697;-38
2021/08/17 07:18:32;;;;;;;36.30;12.93;;;15.70;99.90;;;14.80;87.94;101445.31;2569148;30;138278;-41
2021/08/17 07:21:00;;;;;;;31.20;11.43;;;15.80;99.90;;;14.85;86.64;101436.41;2567205;30;137866;-39
2021/08/17 07:23:28;;;;;;;27.42;11.77;;;15.90;99.90;;;14.93;87.34;101440.78;2570426;30;138112;-39
2021/08/17 07:25:55;;;;;;;32.88;12.70;;;16.00;99.90;;;15.00;86.02;101444.31;2568870;30;137721;-38
2021/08/17 07:28:23;;;;;;;28.15;11.63;;;16.10;99.90;;;15.02;85.36;101450.41;2567680;30;137420;-39
2021/08/17 07:30:51;;;;;;;27.65;12.02;;;16.20;99.90;;;15.03;85.55;101448.50;2569421;30;138629;-39
2021/08/17 07:33:19;;;;;;;32.95;11.55;;;16.10;99.90;;;14.97;85.51;101453.00;2571269;30;137086;-39
2021/08/17 07:35:46;;;;;;;25.35;11.30;;;16.10;99.90;;;15.00;85.98;101452.53;2567883;30;136999;-39
2021/08/17 07:38:14;;;;;;;27.52;11.60;;;16.20;99.90;;;15.09;86.47;101448.41;2569235;30;137361;-39
2021/08/17 07:40:42;;;;;;;27.15;12.18;;;16.20;99.90;;;15.07;85.32;101431.31;2567115;30;137510;-39
2021/08/17 07:43:10;;;;;;;28.50;11.30;;;16.20;99.90;;;15.21;85.74;101445.75;2569812;30;137277;-39
2021/08/17 07:45:38;;;;;;;27.35;11.10;;;16.30;99.90;;;15.28;83.98;101451.19;2568742;30;137410;-39
2021/08/17 07:48:26;;;;;;;28.38;11.27;;;16.40;99.90;;;15.40;83.79;101443.00;2568529;30;139059;-39
2021/08/17 07:50:53;;;;;;;29.77;12.15;;;16.50;99.90;;;15.51;83.30;101455.97;2569682;30;138581;-39
2021/08/17 07:53:21;;;;;;;28.92;12.35;;;16.50;99.90;;;15.60;84.10;101467.50;2569225;30;137542;-39
2021/08/17 07:55:48;;;;;;;;;;;16.70;99.90;;;15.70;82.77;101471.66;2568153;30;137796;-40
2021/08/17 07:58:16;;;;;;;25.98;11.32;;;16.70;99.90;;;15.81;81.76;101462.59;2569018;30;138471;-39
2021/08/17 08:00:44;;;;;;;28.63;12.02;;;16.80;99.90;;;15.87;81.05;101466.34;2569895;30;137961;-39
2021/08/17 08:03:11;;;;;;;25.58;12.18;;;16.90;99.90;;;15.89;82.00;101469.72;2568516;30;138223;-41
2021/08/17 08:05:39;;;;;;;28.63;12.35;;;17.00;99.90;;;15.95;80.36;101474.28;2567945;30;136975;-39
2021/08/17 08:08:07;;;;;;;30.27;13.40;;;17.00;99.90;;;16.07;80.91;101460.59;2567723;30;138365;-39
2021/08/17 08:10:34;;;;;;;27.05;12.38;;;17.10;99.90;;;16.25;82.55;101454.16;2569047;30;137035;-39
2021/08/17 08:13:03;;;;;;;;;;;17.30;99.90;;;16.21;79.06;101450.22;2569158;30;138239;-39
2021/08/17 08:15:31;;;;;;;28.88;13.38;;;17.30;99.90;;;16.07;79.70;101449.56;2568469;30;137199;-39
2021/08/17 08:17:58;;;;;;;28.67;13.05;;;17.30;99.90;;;16.01;79.39;101451.34;2569037;30;137118;-39
2021/08/17 08:20:26;;;;;;;30.52;13.90;;;17.20;99.90;;;15.92;78.78;101445.34;2568842;30;137515;-38
2021/08/17 08:22:54;;;;;;;28.77;13.25;;;17.10;99.90;;;15.90;79.95;101447.47;2568251;30;137420;-39
2021/08/17 08:25:21;;;;;;;28.95;13.25;;;17.10;99.90;;;15.98;80.00;101439.97;2567273;30;137366;-39
2021/08/17 08:27:50;;;;;;;33.55;13.15;;;17.10;99.90;;;16.13;81.01;101437.63;2569625;30;138328;-39
2021/08/17 08:30:18;;;;;;;30.30;13.57;;;17.20;99.90;;;16.22;79.81;101441.72;2568273;30;138090;-39
2021/08/17 08:32:45;;;;;;;28.60;13.52;;;17.30;99.90;;;16.29;77.95;101446.28;2568354;30;137137;-39
2021/08/17 08:35:13;;;;;;;27.17;13.20;;;17.40;99.90;;;16.32;79.12;101446.66;2570102;30;136653;-39
2021/08/17 08:37:41;;;;;;;;;;;17.40;99.90;;;16.41;78.90;101447.13;2568331;30;138407;-39
2021/08/17 08:42:46;;;;;;;29.48;12.45;;;17.50;99.90;;;16.72;78.30;101456.19;2567546;30;137487;-40
2021/08/17 08:45:15;;;;;;;26.92;12.35;;;17.70;99.90;;;17.00;77.83;101451.91;2567202;30;136811;-40
2021/08/17 08:47:44;;;;;;;26.30;11.65;;;17.90;99.90;;;17.32;75.27;101454.25;2568009;30;138490;-40
2021/08/17 08:50:13;;;;;;;25.35;11.30;;;18.10;99.90;;;17.73;74.22;101464.44;2567885;30;137793;-42
2021/08/17 08:52:41;;;;;;;25.08;11.43;;;18.50;99.90;;;18.17;75.24;101464.78;2568500;30;138461;-40
2021/08/17 08:55:12;;;;;;;22.23;10.32;;;18.80;99.90;;;18.14;70.41;101459.75;2568482;30;137564;-40
2021/08/17 08:57:40;;;;;;;25.38;10.52;;;19.00;99.90;;;18.49;74.78;101466.16;2569354;30;138565;-40
2021/08/17 09:00:10;;;;;;;22.45;10.27;;;19.20;99.90;;;18.57;69.16;101468.50;2569765;30;137289;-40
2021/08/17 09:02:38;;;;;;;21.48;9.50;;;19.40;99.90;;;18.55;70.57;101479.78;2567617;30;138258;-40
2021/08/17 09:05:06;;;;;;;21.48;9.55;;;19.50;99.90;;;18.32;67.94;101466.16;2569156;30;137506;-40
2021/08/17 09:07:40;;;;;;;23.42;9.73;;;19.40;99.90;;;18.10;70.02;101475.97;2568033;30;139154;-40
2021/08/17 09:10:12;;;;;;;22.45;10.38;;;19.20;99.90;;;17.97;70.04;101460.50;2566037;30;138582;-41
2021/08/17 09:13:00;;;;;;;20.27;8.95;;;19.10;99.90;;;17.95;69.23;101472.91;2567391;30;138196;-40
2021/08/17 09:15:34;;;;;;;21.48;9.50;;;19.10;99.90;;;17.71;69.08;101467.47;2567421;30;137690;-40
2021/08/17 09:18:12;;;;;;;18.58;9.10;;;18.90;99.90;;;17.75;68.95;101462.28;2569101;30;137456;-40
2021/08/17 09:20:45;;;;;;;24.13;9.65;;;18.90;99.90;;;17.77;68.89;101452.69;2566550;30;136952;-41
2021/08/17 09:23:37;;;;;;;20.80;9.23;;;18.90;99.90;;;17.90;69.18;101437.75;2568243;30;138990;-40
2021/08/17 09:26:29;;;;;;;17.48;8.77;;;18.90;99.90;;;17.98;69.86;101440.09;2567234;30;136889;-40
2021/08/17 09:29:03;;;;;;;19.45;9.20;;;19.00;99.90;;;17.93;68.08;101431.72;2566809;30;138475;-40
2021/08/17 09:31:42;;;;;;;18.70;7.65;;;19.00;99.90;;;17.87;68.03;101431.88;2568289;30;137523;-41
2021/08/17 09:34:11;;;;;;;17.73;8.90;;;19.00;99.90;;;17.86;68.48;101439.34;2567943;30;138295;-42
2021/08/17 09:36:42;;;;;;;20.00;8.90;;;18.90;99.90;;;17.81;69.44;101439.25;2568111;30;137481;-40
2021/08/17 09:39:11;;;;;;;15.82;8.07;;;18.90;99.90;;;17.73;68.75;101445.13;2568142;30;139252;-40
2021/08/17 09:41:39;;;;;;;18.95;8.48;;;18.90;99.90;;;17.72;68.13;101451.72;2569287;30;136871;-41
2021/08/17 09:44:08;;;;;;;;;;;18.80;99.90;;;17.72;67.05;101457.25;2568794;30;138220;-41
2021/08/17 09:46:39;;;;;;;15.70;7.65;;;18.80;99.90;;;17.83;68.97;101448.09;2567816;30;137399;-40
2021/08/17 09:49:27;;;;;;;17.20;7.60;;;18.80;99.90;;;17.93;67.10;101448.28;2568103;30;140292;-41
2021/08/17 09:52:06;;;;;;;14.23;7.53;;;18.90;99.90;;;17.84;64.30;101460.81;2567668;30;137637;-40
2021/08/17 09:54:42;;;;;;;16.15;7.90;;;18.90;99.90;;;17.98;68.28;101455.84;2568252;30;138453;-40
2021/08/17 09:57:11;;;;;;;17.48;7.70;;;19.00;99.90;;;17.94;65.04;101449.97;2567444;30;137395;-41
2021/08/17 09:59:42;;;;;;;18.27;8.05;;;19.00;99.90;;;17.97;67.29;101460.50;2565641;30;138356;-40
2021/08/17 10:02:12;;;;;;;16.67;7.93;;;19.00;99.90;;;17.89;66.23;101458.16;2568021;30;136714;-40
2021/08/17 10:04:42;;;;;;;18.25;8.90;;;19.00;99.90;;;17.67;65.30;101460.78;2566020;30;138466;-40
2021/08/17 10:07:09;;;;;;;17.27;7.95;;;18.90;99.90;;;17.62;65.46;101472.53;2568453;30;137487;-41